Airfield :
LOGIN :

Register | Disclaimer

   EN    FR    IT 

 










Legend :    VFR   Marginal VFR   IFR   Intensive IFR   Very Intensive IFR
Visi :
Ceiling :
>= 8 km
>= 3000ft
5 to 8 km
1000 to 3000 ft
1500m to 5 km
500 to 1000 ft
800 to 1500m
200 to 500 ft
< 800m
< 200 ft
Symbols :   Thunderstorms  Fog  Heavy snow  Heavy precipitations  Wind > 20 kt
SIGMETs :     Misc.  Thunderstorms  Icing  Turbulence  Mountain Waves  Volcanic Ashes






- Airport Elevation : 183 ft
- IATA code : HAJ


EDDV - Hanover/Langenhagen Int.

CURRENT METAR :
  • 050450Z AUTO 10010KT 9000 -SN BKN007 BKN016 OVC028 M01/M02 Q1003 TEMPO 4000 -SNRA SCT007

EXPIRED METARs :
  • 050420Z AUTO 10009KT 8000 -SN BKN007 BKN023 BKN030 M01/M02 Q1003 NOSIG
  • 050350Z AUTO 10009KT 080V140 4400 -SN BR BKN007 BKN018 OVC024 M01/M02 Q1003 TEMPO 6000 SNRA SCT007
  • 050320Z AUTO 10010KT 7000 -SN BKN007 BKN024 M00/M02 Q1003
  • 050250Z AUTO 10010KT 7000 -SNRA BKN007 BKN025 BKN030 M00/M02 Q1004
  • 050220Z AUTO 10010KT 080V140 6000 -SN FEW007 SCT018 OVC026 M01/M02 Q1004
  • 050150Z AUTO 10010KT 5000 -SN BR SCT007 SCT017 BKN025 M01/M02 Q1004
  • 050120Z AUTO 10008KT 7000 -SN SCT007 BKN017 OVC026 M01/M02 Q1004
  • 050050Z AUTO 10008KT 5000 -SN BR SCT007 BKN017 OVC027 M01/M02 Q1004
  • 050020Z AUTO 11008KT 080V150 4500 -SN BR SCT006 BKN018 BKN024 M01/M01 Q1005 RESN

TAF TAF EDDV
Valid from the 05 at 00:00 until the 06 at 00:00 UTC


042300Z 0500/0524 10010KT 4000 BR SCT008 BKN020
TEMPO 0500/0509 2000 SN BKN006
PROB30
TEMPO 0501/0511 8000
TEMPO 0509/0511 -FZRA BKN008
TEMPO 0511/0520 6000 BKN008
BECMG 0522/0524 BKN006



MET'MAP, your aeronautical weather chart ! - Copyright ORBIFLY December 2007 - Disclaimer

ORBIFLY MET'MAP TEAM :

Programming & Development : Alexandra Zaïnal
Original concept : Baudouin d'Aumeries
Technical & hardware support : Manuel Goepfert
Assistance : Marc-Olivier Méhu




SOURCES & CREDITS :

   NOAA